sensor_id;sensor_type;location;lat;lon;timestamp;P1;durP1;ratioP1;P2;durP2;ratioP2
10299;SDS011;5195;48.562;9.192;2023-03-31T00:01:45;4.47;;;2.50;;
10299;SDS011;5195;48.562;9.192;2023-03-31T00:04:21;4.77;;;2.03;;
10299;SDS011;5195;48.562;9.192;2023-03-31T00:06:58;4.07;;;2.40;;
10299;SDS011;5195;48.562;9.192;2023-03-31T00:09:36;2.33;;;1.83;;
10299;SDS011;5195;48.562;9.192;2023-03-31T00:12:12;2.80;;;2.30;;
10299;SDS011;5195;48.562;9.192;2023-03-31T00:14:47;5.20;;;2.65;;
10299;SDS011;5195;48.562;9.192;2023-03-31T00:17:22;4.13;;;2.57;;
10299;SDS011;5195;48.562;9.192;2023-03-31T00:19:58;3.00;;;2.17;;
10299;SDS011;5195;48.562;9.192;2023-03-31T00:22:34;3.17;;;2.00;;
10299;SDS011;5195;48.562;9.192;2023-03-31T00:25:14;4.07;;;2.20;;
10299;SDS011;5195;48.562;9.192;2023-03-31T00:27:50;3.53;;;2.20;;
10299;SDS011;5195;48.562;9.192;2023-03-31T00:30:26;4.30;;;2.20;;
10299;SDS011;5195;48.562;9.192;2023-03-31T00:33:03;3.53;;;2.17;;
10299;SDS011;5195;48.562;9.192;2023-03-31T00:35:39;2.73;;;1.83;;
10299;SDS011;5195;48.562;9.192;2023-03-31T00:38:17;3.37;;;2.07;;
10299;SDS011;5195;48.562;9.192;2023-03-31T00:40:53;3.30;;;2.30;;
10299;SDS011;5195;48.562;9.192;2023-03-31T00:43:33;3.50;;;1.93;;
10299;SDS011;5195;48.562;9.192;2023-03-31T00:46:16;5.03;;;2.20;;
10299;SDS011;5195;48.562;9.192;2023-03-31T00:48:50;3.70;;;2.40;;
10299;SDS011;5195;48.562;9.192;2023-03-31T00:51:26;2.53;;;1.97;;
10299;SDS011;5195;48.562;9.192;2023-03-31T00:54:03;4.85;;;2.55;;
10299;SDS011;5195;48.562;9.192;2023-03-31T00:56:38;5.50;;;2.60;;
10299;SDS011;5195;48.562;9.192;2023-03-31T00:59:13;4.50;;;2.40;;
10299;SDS011;5195;48.562;9.192;2023-03-31T01:01:49;3.70;;;2.33;;
10299;SDS011;5195;48.562;9.192;2023-03-31T01:04:24;3.50;;;2.10;;
10299;SDS011;5195;48.562;9.192;2023-03-31T01:07:02;3.83;;;2.30;;
10299;SDS011;5195;48.562;9.192;2023-03-31T01:09:36;5.67;;;2.00;;
10299;SDS011;5195;48.562;9.192;2023-03-31T01:12:12;2.97;;;2.00;;
10299;SDS011;5195;48.562;9.192;2023-03-31T01:14:48;2.73;;;2.00;;
10299;SDS011;5195;48.562;9.192;2023-03-31T01:17:23;5.30;;;2.47;;
10299;SDS011;5195;48.562;9.192;2023-03-31T01:28:37;3.63;;;2.30;;
10299;SDS011;5195;48.562;9.192;2023-03-31T01:40:10;5.03;;;2.63;;
10299;SDS011;5195;48.562;9.192;2023-03-31T01:46:09;4.47;;;2.07;;
10299;SDS011;5195;48.562;9.192;2023-03-31T01:54:40;5.47;;;2.63;;
10299;SDS011;5195;48.562;9.192;2023-03-31T01:57:31;3.10;;;1.80;;
10299;SDS011;5195;48.562;9.192;2023-03-31T02:02:53;3.97;;;2.73;;
10299;SDS011;5195;48.562;9.192;2023-03-31T02:05:30;3.43;;;2.43;;
10299;SDS011;5195;48.562;9.192;2023-03-31T02:08:10;3.67;;;2.78;;
10299;SDS011;5195;48.562;9.192;2023-03-31T02:10:45;4.63;;;2.77;;
10299;SDS011;5195;48.562;9.192;2023-03-31T02:13:21;5.05;;;3.20;;
10299;SDS011;5195;48.562;9.192;2023-03-31T02:15:57;5.97;;;2.27;;
10299;SDS011;5195;48.562;9.192;2023-03-31T02:18:32;4.00;;;2.80;;
10299;SDS011;5195;48.562;9.192;2023-03-31T02:21:07;4.00;;;2.67;;
10299;SDS011;5195;48.562;9.192;2023-03-31T02:23:43;4.97;;;3.00;;
10299;SDS011;5195;48.562;9.192;2023-03-31T02:26:20;5.10;;;3.07;;
10299;SDS011;5195;48.562;9.192;2023-03-31T02:28:55;5.72;;;2.83;;
10299;SDS011;5195;48.562;9.192;2023-03-31T02:34:32;4.22;;;3.10;;
10299;SDS011;5195;48.562;9.192;2023-03-31T02:37:08;7.00;;;2.93;;
10299;SDS011;5195;48.562;9.192;2023-03-31T02:39:43;5.37;;;3.00;;
10299;SDS011;5195;48.562;9.192;2023-03-31T02:42:19;6.10;;;3.37;;
10299;SDS011;5195;48.562;9.192;2023-03-31T02:45:00;4.67;;;2.93;;
10299;SDS011;5195;48.562;9.192;2023-03-31T02:47:30;6.37;;;2.92;;
10299;SDS011;5195;48.562;9.192;2023-03-31T02:50:06;6.73;;;3.30;;
10299;SDS011;5195;48.562;9.192;2023-03-31T02:55:31;4.30;;;2.50;;
10299;SDS011;5195;48.562;9.192;2023-03-31T03:03:57;4.00;;;2.67;;
10299;SDS011;5195;48.562;9.192;2023-03-31T03:06:44;5.83;;;3.03;;
10299;SDS011;5195;48.562;9.192;2023-03-31T03:12:09;5.17;;;3.70;;
10299;SDS011;5195;48.562;9.192;2023-03-31T03:17:30;6.53;;;3.40;;
10299;SDS011;5195;48.562;9.192;2023-03-31T03:20:14;3.50;;;3.10;;
10299;SDS011;5195;48.562;9.192;2023-03-31T03:22:49;5.83;;;3.50;;
10299;SDS011;5195;48.562;9.192;2023-03-31T03:25:25;6.43;;;3.20;;
10299;SDS011;5195;48.562;9.192;2023-03-31T03:28:01;6.32;;;3.40;;
10299;SDS011;5195;48.562;9.192;2023-03-31T03:30:37;6.23;;;3.50;;
10299;SDS011;5195;48.562;9.192;2023-03-31T03:33:13;4.30;;;3.17;;
10299;SDS011;5195;48.562;9.192;2023-03-31T03:35:48;6.60;;;3.73;;
10299;SDS011;5195;48.562;9.192;2023-03-31T03:38:24;7.00;;;3.40;;
10299;SDS011;5195;48.562;9.192;2023-03-31T03:41:00;7.00;;;3.87;;
10299;SDS011;5195;48.562;9.192;2023-03-31T03:43:36;3.57;;;3.10;;
10299;SDS011;5195;48.562;9.192;2023-03-31T03:46:11;4.37;;;3.13;;
10299;SDS011;5195;48.562;9.192;2023-03-31T03:48:47;6.40;;;3.40;;
10299;SDS011;5195;48.562;9.192;2023-03-31T03:51:23;6.20;;;4.10;;
10299;SDS011;5195;48.562;9.192;2023-03-31T03:53:58;8.40;;;4.00;;
10299;SDS011;5195;48.562;9.192;2023-03-31T03:56:34;5.60;;;3.92;;
10299;SDS011;5195;48.562;9.192;2023-03-31T03:59:10;7.20;;;3.60;;
10299;SDS011;5195;48.562;9.192;2023-03-31T04:01:45;5.90;;;3.73;;
10299;SDS011;5195;48.562;9.192;2023-03-31T04:04:21;3.53;;;3.10;;
10299;SDS011;5195;48.562;9.192;2023-03-31T04:06:57;4.47;;;3.23;;
10299;SDS011;5195;48.562;9.192;2023-03-31T04:09:34;5.67;;;3.20;;
10299;SDS011;5195;48.562;9.192;2023-03-31T04:12:09;5.70;;;3.30;;
10299;SDS011;5195;48.562;9.192;2023-03-31T04:14:46;6.97;;;4.03;;
10299;SDS011;5195;48.562;9.192;2023-03-31T04:17:21;5.30;;;4.10;;
10299;SDS011;5195;48.562;9.192;2023-03-31T04:19:58;5.17;;;3.63;;
10299;SDS011;5195;48.562;9.192;2023-03-31T04:22:32;4.60;;;3.70;;
10299;SDS011;5195;48.562;9.192;2023-03-31T04:25:09;5.53;;;3.70;;
10299;SDS011;5195;48.562;9.192;2023-03-31T04:27:48;4.60;;;3.70;;
10299;SDS011;5195;48.562;9.192;2023-03-31T04:30:23;6.10;;;4.00;;
10299;SDS011;5195;48.562;9.192;2023-03-31T04:32:59;4.57;;;3.53;;
10299;SDS011;5195;48.562;9.192;2023-03-31T04:35:33;4.82;;;3.70;;
10299;SDS011;5195;48.562;9.192;2023-03-31T04:38:23;6.15;;;3.92;;
10299;SDS011;5195;48.562;9.192;2023-03-31T04:40:58;4.40;;;3.17;;
10299;SDS011;5195;48.562;9.192;2023-03-31T04:43:33;6.07;;;4.50;;
10299;SDS011;5195;48.562;9.192;2023-03-31T04:46:09;5.63;;;3.83;;
10299;SDS011;5195;48.562;9.192;2023-03-31T04:48:46;4.53;;;4.07;;
10299;SDS011;5195;48.562;9.192;2023-03-31T04:51:21;4.40;;;3.70;;
10299;SDS011;5195;48.562;9.192;2023-03-31T04:53:57;5.95;;;4.10;;
10299;SDS011;5195;48.562;9.192;2023-03-31T04:56:32;6.53;;;3.77;;
10299;SDS011;5195;48.562;9.192;2023-03-31T04:59:08;5.60;;;3.83;;
10299;SDS011;5195;48.562;9.192;2023-03-31T05:01:44;5.43;;;4.03;;
10299;SDS011;5195;48.562;9.192;2023-03-31T05:04:19;6.17;;;4.10;;
10299;SDS011;5195;48.562;9.192;2023-03-31T05:06:56;5.62;;;4.15;;
10299;SDS011;5195;48.562;9.192;2023-03-31T05:09:31;5.70;;;4.13;;
10299;SDS011;5195;48.562;9.192;2023-03-31T05:12:09;5.87;;;4.05;;
10299;SDS011;5195;48.562;9.192;2023-03-31T05:14:44;6.37;;;4.30;;
10299;SDS011;5195;48.562;9.192;2023-03-31T05:17:20;4.50;;;3.87;;
10299;SDS011;5195;48.562;9.192;2023-03-31T05:19:56;4.30;;;3.57;;
10299;SDS011;5195;48.562;9.192;2023-03-31T05:22:33;7.10;;;4.10;;
10299;SDS011;5195;48.562;9.192;2023-03-31T05:25:07;8.02;;;4.72;;
10299;SDS011;5195;48.562;9.192;2023-03-31T05:27:44;5.03;;;4.27;;
10299;SDS011;5195;48.562;9.192;2023-03-31T05:30:21;5.60;;;4.20;;
10299;SDS011;5195;48.562;9.192;2023-03-31T05:32:56;8.33;;;5.00;;
10299;SDS011;5195;48.562;9.192;2023-03-31T05:35:32;6.35;;;4.75;;
10299;SDS011;5195;48.562;9.192;2023-03-31T05:38:08;8.37;;;6.77;;
10299;SDS011;5195;48.562;9.192;2023-03-31T05:40:44;8.57;;;5.43;;
10299;SDS011;5195;48.562;9.192;2023-03-31T05:43:19;6.43;;;5.20;;
10299;SDS011;5195;48.562;9.192;2023-03-31T05:45:55;7.47;;;5.50;;
10299;SDS011;5195;48.562;9.192;2023-03-31T05:48:30;8.03;;;5.80;;
10299;SDS011;5195;48.562;9.192;2023-03-31T05:51:06;8.67;;;4.93;;
10299;SDS011;5195;48.562;9.192;2023-03-31T05:53:41;5.23;;;4.73;;
10299;SDS011;5195;48.562;9.192;2023-03-31T05:56:18;5.47;;;4.50;;
10299;SDS011;5195;48.562;9.192;2023-03-31T05:58:53;8.10;;;5.50;;
10299;SDS011;5195;48.562;9.192;2023-03-31T06:01:29;6.33;;;5.03;;
10299;SDS011;5195;48.562;9.192;2023-03-31T06:04:05;5.57;;;4.80;;
10299;SDS011;5195;48.562;9.192;2023-03-31T06:06:41;7.60;;;6.18;;
10299;SDS011;5195;48.562;9.192;2023-03-31T06:09:16;9.17;;;5.57;;
10299;SDS011;5195;48.562;9.192;2023-03-31T06:15:30;8.57;;;6.07;;
10299;SDS011;5195;48.562;9.192;2023-03-31T06:18:05;10.23;;;6.57;;
10299;SDS011;5195;48.562;9.192;2023-03-31T06:20:42;12.40;;;8.50;;
10299;SDS011;5195;48.562;9.192;2023-03-31T06:23:17;9.65;;;8.00;;
10299;SDS011;5195;48.562;9.192;2023-03-31T06:25:53;7.77;;;6.83;;
10299;SDS011;5195;48.562;9.192;2023-03-31T06:28:29;7.30;;;6.50;;
10299;SDS011;5195;48.562;9.192;2023-03-31T06:31:09;8.53;;;5.57;;
10299;SDS011;5195;48.562;9.192;2023-03-31T06:33:44;8.48;;;6.40;;
10299;SDS011;5195;48.562;9.192;2023-03-31T06:36:21;7.50;;;5.70;;
10299;SDS011;5195;48.562;9.192;2023-03-31T06:38:57;11.33;;;5.80;;
10299;SDS011;5195;48.562;9.192;2023-03-31T06:41:32;8.17;;;6.30;;
10299;SDS011;5195;48.562;9.192;2023-03-31T06:44:08;9.13;;;6.03;;
10299;SDS011;5195;48.562;9.192;2023-03-31T06:46:45;10.90;;;6.60;;
10299;SDS011;5195;48.562;9.192;2023-03-31T06:49:22;12.45;;;8.30;;
10299;SDS011;5195;48.562;9.192;2023-03-31T06:51:57;13.07;;;8.73;;
10299;SDS011;5195;48.562;9.192;2023-03-31T06:54:35;10.60;;;7.50;;
10299;SDS011;5195;48.562;9.192;2023-03-31T06:57:11;8.90;;;6.40;;
10299;SDS011;5195;48.562;9.192;2023-03-31T06:59:47;9.70;;;6.95;;
10299;SDS011;5195;48.562;9.192;2023-03-31T07:02:22;7.33;;;4.90;;
10299;SDS011;5195;48.562;9.192;2023-03-31T07:04:59;6.27;;;4.80;;
10299;SDS011;5195;48.562;9.192;2023-03-31T07:07:35;6.72;;;5.30;;
10299;SDS011;5195;48.562;9.192;2023-03-31T07:10:11;3.50;;;3.27;;
10299;SDS011;5195;48.562;9.192;2023-03-31T07:12:46;4.63;;;4.00;;
10299;SDS011;5195;48.562;9.192;2023-03-31T07:15:22;6.12;;;5.00;;
10299;SDS011;5195;48.562;9.192;2023-03-31T07:17:57;4.60;;;3.27;;
10299;SDS011;5195;48.562;9.192;2023-03-31T07:20:33;4.93;;;3.70;;
10299;SDS011;5195;48.562;9.192;2023-03-31T07:23:08;3.50;;;2.30;;
10299;SDS011;5195;48.562;9.192;2023-03-31T07:25:45;4.40;;;3.47;;
10299;SDS011;5195;48.562;9.192;2023-03-31T07:28:20;3.97;;;3.67;;
10299;SDS011;5195;48.562;9.192;2023-03-31T07:30:55;4.17;;;3.40;;
10299;SDS011;5195;48.562;9.192;2023-03-31T07:33:31;4.47;;;3.63;;
10299;SDS011;5195;48.562;9.192;2023-03-31T07:36:11;5.37;;;4.70;;
10299;SDS011;5195;48.562;9.192;2023-03-31T07:38:46;6.18;;;4.93;;
10299;SDS011;5195;48.562;9.192;2023-03-31T07:41:22;4.53;;;3.95;;
10299;SDS011;5195;48.562;9.192;2023-03-31T07:43:58;2.93;;;2.73;;
10299;SDS011;5195;48.562;9.192;2023-03-31T07:46:33;2.27;;;2.13;;
10299;SDS011;5195;48.562;9.192;2023-03-31T07:49:09;2.13;;;1.93;;
10299;SDS011;5195;48.562;9.192;2023-03-31T07:51:44;2.57;;;2.37;;
10299;SDS011;5195;48.562;9.192;2023-03-31T07:54:20;2.30;;;2.20;;
10299;SDS011;5195;48.562;9.192;2023-03-31T07:56:55;2.53;;;2.20;;
10299;SDS011;5195;48.562;9.192;2023-03-31T07:59:31;2.37;;;2.17;;
10299;SDS011;5195;48.562;9.192;2023-03-31T08:02:08;2.67;;;1.90;;
10299;SDS011;5195;48.562;9.192;2023-03-31T08:04:43;2.10;;;1.83;;
10299;SDS011;5195;48.562;9.192;2023-03-31T08:07:18;1.70;;;1.60;;
10299;SDS011;5195;48.562;9.192;2023-03-31T08:09:53;2.77;;;2.57;;
10299;SDS011;5195;48.562;9.192;2023-03-31T08:12:30;2.40;;;2.30;;
10299;SDS011;5195;48.562;9.192;2023-03-31T08:15:05;1.80;;;1.70;;
10299;SDS011;5195;48.562;9.192;2023-03-31T08:17:42;1.60;;;1.50;;
10299;SDS011;5195;48.562;9.192;2023-03-31T08:20:18;1.50;;;1.40;;
10299;SDS011;5195;48.562;9.192;2023-03-31T08:22:54;1.53;;;1.10;;
10299;SDS011;5195;48.562;9.192;2023-03-31T08:25:31;1.10;;;1.10;;
10299;SDS011;5195;48.562;9.192;2023-03-31T08:28:07;1.50;;;1.40;;
10299;SDS011;5195;48.562;9.192;2023-03-31T08:30:42;1.73;;;1.63;;
10299;SDS011;5195;48.562;9.192;2023-03-31T08:33:18;1.90;;;1.80;;
10299;SDS011;5195;48.562;9.192;2023-03-31T08:35:53;1.30;;;1.20;;
10299;SDS011;5195;48.562;9.192;2023-03-31T08:38:29;1.35;;;1.25;;
10299;SDS011;5195;48.562;9.192;2023-03-31T08:41:05;0.80;;;0.80;;
10299;SDS011;5195;48.562;9.192;2023-03-31T08:43:40;0.60;;;0.60;;
10299;SDS011;5195;48.562;9.192;2023-03-31T08:46:17;1.45;;;0.90;;
10299;SDS011;5195;48.562;9.192;2023-03-31T08:48:56;1.10;;;0.70;;
10299;SDS011;5195;48.562;9.192;2023-03-31T08:51:31;0.70;;;0.70;;
10299;SDS011;5195;48.562;9.192;2023-03-31T08:54:11;1.08;;;0.80;;
10299;SDS011;5195;48.562;9.192;2023-03-31T08:56:43;1.40;;;1.00;;
10299;SDS011;5195;48.562;9.192;2023-03-31T09:10:55;1.00;;;0.77;;
10299;SDS011;5195;48.562;9.192;2023-03-31T09:16:34;0.93;;;0.83;;
10299;SDS011;5195;48.562;9.192;2023-03-31T09:19:31;0.93;;;0.90;;
10299;SDS011;5195;48.562;9.192;2023-03-31T09:22:13;1.23;;;0.90;;
10299;SDS011;5195;48.562;9.192;2023-03-31T09:24:53;0.90;;;0.90;;
10299;SDS011;5195;48.562;9.192;2023-03-31T09:27:41;0.90;;;0.90;;
10299;SDS011;5195;48.562;9.192;2023-03-31T09:30:20;1.10;;;1.00;;
10299;SDS011;5195;48.562;9.192;2023-03-31T09:35:45;0.87;;;0.70;;
10299;SDS011;5195;48.562;9.192;2023-03-31T09:38:21;2.35;;;1.20;;
10299;SDS011;5195;48.562;9.192;2023-03-31T09:40:57;1.17;;;0.97;;
10299;SDS011;5195;48.562;9.192;2023-03-31T09:43:32;1.90;;;1.12;;
10299;SDS011;5195;48.562;9.192;2023-03-31T09:46:32;1.60;;;1.20;;
10299;SDS011;5195;48.562;9.192;2023-03-31T09:48:51;2.03;;;1.10;;
10299;SDS011;5195;48.562;9.192;2023-03-31T09:51:33;1.97;;;1.17;;
10299;SDS011;5195;48.562;9.192;2023-03-31T09:56:57;2.57;;;1.20;;
10299;SDS011;5195;48.562;9.192;2023-03-31T09:59:33;3.20;;;1.40;;
10299;SDS011;5195;48.562;9.192;2023-03-31T10:05:17;1.43;;;0.87;;
10299;SDS011;5195;48.562;9.192;2023-03-31T10:07:43;2.55;;;1.45;;
10299;SDS011;5195;48.562;9.192;2023-03-31T10:10:26;2.00;;;1.30;;
10299;SDS011;5195;48.562;9.192;2023-03-31T10:12:58;2.07;;;1.50;;
10299;SDS011;5195;48.562;9.192;2023-03-31T10:15:36;2.57;;;1.50;;
10299;SDS011;5195;48.562;9.192;2023-03-31T10:18:19;2.27;;;1.27;;
10299;SDS011;5195;48.562;9.192;2023-03-31T10:20:49;3.73;;;1.87;;
10299;SDS011;5195;48.562;9.192;2023-03-31T10:23:28;3.23;;;1.20;;
10299;SDS011;5195;48.562;9.192;2023-03-31T10:26:03;2.13;;;1.63;;
10299;SDS011;5195;48.562;9.192;2023-03-31T10:28:38;2.75;;;2.00;;
10299;SDS011;5195;48.562;9.192;2023-03-31T10:31:15;4.93;;;1.60;;
10299;SDS011;5195;48.562;9.192;2023-03-31T10:33:51;3.00;;;1.70;;
10299;SDS011;5195;48.562;9.192;2023-03-31T10:36:27;2.63;;;1.60;;
10299;SDS011;5195;48.562;9.192;2023-03-31T10:39:06;2.17;;;1.43;;
10299;SDS011;5195;48.562;9.192;2023-03-31T10:41:41;4.37;;;1.40;;
10299;SDS011;5195;48.562;9.192;2023-03-31T10:44:34;3.65;;;1.80;;
10299;SDS011;5195;48.562;9.192;2023-03-31T10:49:49;3.50;;;1.53;;
10299;SDS011;5195;48.562;9.192;2023-03-31T10:52:25;4.47;;;1.17;;
10299;SDS011;5195;48.562;9.192;2023-03-31T10:55:00;3.83;;;2.00;;
10299;SDS011;5195;48.562;9.192;2023-03-31T10:57:40;2.73;;;1.23;;
10299;SDS011;5195;48.562;9.192;2023-03-31T11:00:38;2.87;;;1.60;;
10299;SDS011;5195;48.562;9.192;2023-03-31T11:14:56;2.80;;;1.27;;
10299;SDS011;5195;48.562;9.192;2023-03-31T11:23:48;2.07;;;1.20;;
10299;SDS011;5195;48.562;9.192;2023-03-31T11:29:39;3.67;;;1.20;;
10299;SDS011;5195;48.562;9.192;2023-03-31T11:32:36;2.40;;;0.90;;
10299;SDS011;5195;48.562;9.192;2023-03-31T11:41:34;1.47;;;0.40;;
10299;SDS011;5195;48.562;9.192;2023-03-31T11:44:10;1.50;;;0.73;;
10299;SDS011;5195;48.562;9.192;2023-03-31T11:46:56;2.17;;;0.87;;
10299;SDS011;5195;48.562;9.192;2023-03-31T11:49:43;0.40;;;0.40;;
10299;SDS011;5195;48.562;9.192;2023-03-31T11:52:17;2.33;;;0.40;;
10299;SDS011;5195;48.562;9.192;2023-03-31T11:57:41;0.20;;;0.20;;
10299;SDS011;5195;48.562;9.192;2023-03-31T12:00:17;0.52;;;0.40;;
10299;SDS011;5195;48.562;9.192;2023-03-31T12:02:53;1.33;;;0.35;;
10299;SDS011;5195;48.562;9.192;2023-03-31T12:05:27;0.53;;;0.27;;
10299;SDS011;5195;48.562;9.192;2023-03-31T12:11:10;0.40;;;0.40;;
10299;SDS011;5195;48.562;9.192;2023-03-31T12:16:44;0.97;;;0.53;;
10299;SDS011;5195;48.562;9.192;2023-03-31T12:19:24;1.07;;;0.50;;
10299;SDS011;5195;48.562;9.192;2023-03-31T12:22:16;1.57;;;0.50;;
10299;SDS011;5195;48.562;9.192;2023-03-31T12:24:50;0.60;;;0.60;;
10299;SDS011;5195;48.562;9.192;2023-03-31T12:33:09;1.13;;;0.30;;
10299;SDS011;5195;48.562;9.192;2023-03-31T12:38:36;0.68;;;0.65;;
10299;SDS011;5195;48.562;9.192;2023-03-31T12:44:12;1.37;;;0.70;;
10299;SDS011;5195;48.562;9.192;2023-03-31T12:49:56;1.63;;;0.77;;
10299;SDS011;5195;48.562;9.192;2023-03-31T13:06:56;1.23;;;0.80;;
10299;SDS011;5195;48.562;9.192;2023-03-31T13:09:42;2.53;;;0.80;;
10299;SDS011;5195;48.562;9.192;2023-03-31T13:12:17;1.60;;;1.00;;
10299;SDS011;5195;48.562;9.192;2023-03-31T13:14:55;2.67;;;1.10;;
10299;SDS011;5195;48.562;9.192;2023-03-31T13:17:34;0.93;;;0.83;;
10299;SDS011;5195;48.562;9.192;2023-03-31T13:20:23;2.10;;;1.27;;
10299;SDS011;5195;48.562;9.192;2023-03-31T13:22:58;3.20;;;1.70;;
10299;SDS011;5195;48.562;9.192;2023-03-31T13:28:39;2.63;;;1.37;;
10299;SDS011;5195;48.562;9.192;2023-03-31T13:31:15;3.62;;;1.40;;
10299;SDS011;5195;48.562;9.192;2023-03-31T13:33:57;2.60;;;1.37;;
10299;SDS011;5195;48.562;9.192;2023-03-31T13:36:42;3.70;;;1.50;;
10299;SDS011;5195;48.562;9.192;2023-03-31T13:48:34;4.03;;;1.13;;
10299;SDS011;5195;48.562;9.192;2023-03-31T14:03:28;2.57;;;0.63;;
10299;SDS011;5195;48.562;9.192;2023-03-31T14:08:59;0.30;;;0.30;;
10299;SDS011;5195;48.562;9.192;2023-03-31T14:11:34;0.63;;;0.40;;
10299;SDS011;5195;48.562;9.192;2023-03-31T14:14:13;1.25;;;0.40;;
10299;SDS011;5195;48.562;9.192;2023-03-31T14:16:52;0.90;;;0.32;;
10299;SDS011;5195;48.562;9.192;2023-03-31T14:19:38;0.73;;;0.40;;
10299;SDS011;5195;48.562;9.192;2023-03-31T14:36:46;2.17;;;0.97;;
10299;SDS011;5195;48.562;9.192;2023-03-31T14:39:32;1.73;;;0.77;;
10299;SDS011;5195;48.562;9.192;2023-03-31T14:42:13;1.27;;;0.80;;
10299;SDS011;5195;48.562;9.192;2023-03-31T14:44:48;1.57;;;1.07;;
10299;SDS011;5195;48.562;9.192;2023-03-31T14:47:25;2.33;;;0.87;;
10299;SDS011;5195;48.562;9.192;2023-03-31T14:50:00;1.53;;;0.60;;
10299;SDS011;5195;48.562;9.192;2023-03-31T14:52:51;1.03;;;0.73;;
10299;SDS011;5195;48.562;9.192;2023-03-31T14:55:27;1.90;;;0.60;;
10299;SDS011;5195;48.562;9.192;2023-03-31T14:58:02;2.25;;;0.75;;
10299;SDS011;5195;48.562;9.192;2023-03-31T15:00:39;1.40;;;0.60;;
10299;SDS011;5195;48.562;9.192;2023-03-31T15:03:14;1.00;;;0.70;;
10299;SDS011;5195;48.562;9.192;2023-03-31T15:05:50;0.40;;;0.40;;
10299;SDS011;5195;48.562;9.192;2023-03-31T15:08:25;1.80;;;0.57;;
10299;SDS011;5195;48.562;9.192;2023-03-31T15:11:13;1.55;;;0.77;;
10299;SDS011;5195;48.562;9.192;2023-03-31T16:07:40;2.20;;;0.70;;
10299;SDS011;5195;48.562;9.192;2023-03-31T16:12:47;2.33;;;1.00;;
10299;SDS011;5195;48.562;9.192;2023-03-31T16:15:13;1.70;;;1.60;;
10299;SDS011;5195;48.562;9.192;2023-03-31T16:17:49;1.90;;;1.20;;
10299;SDS011;5195;48.562;9.192;2023-03-31T16:20:22;2.00;;;1.07;;
10299;SDS011;5195;48.562;9.192;2023-03-31T16:22:47;1.60;;;0.68;;
10299;SDS011;5195;48.562;9.192;2023-03-31T16:25:13;2.00;;;1.00;;
10299;SDS011;5195;48.562;9.192;2023-03-31T16:27:45;1.10;;;1.00;;
10299;SDS011;5195;48.562;9.192;2023-03-31T16:30:09;1.73;;;0.67;;
10299;SDS011;5195;48.562;9.192;2023-03-31T16:32:33;1.23;;;1.00;;
10299;SDS011;5195;48.562;9.192;2023-03-31T16:35:00;1.17;;;0.80;;
10299;SDS011;5195;48.562;9.192;2023-03-31T16:37:28;2.23;;;0.80;;
10299;SDS011;5195;48.562;9.192;2023-03-31T16:39:53;3.00;;;1.20;;
10299;SDS011;5195;48.562;9.192;2023-03-31T16:42:19;2.20;;;1.17;;
10299;SDS011;5195;48.562;9.192;2023-03-31T16:44:44;1.20;;;0.90;;
10299;SDS011;5195;48.562;9.192;2023-03-31T16:47:11;1.73;;;0.97;;
10299;SDS011;5195;48.562;9.192;2023-03-31T16:49:37;2.00;;;1.00;;
10299;SDS011;5195;48.562;9.192;2023-03-31T16:52:03;2.60;;;0.90;;
10299;SDS011;5195;48.562;9.192;2023-03-31T16:54:28;2.40;;;1.10;;
10299;SDS011;5195;48.562;9.192;2023-03-31T16:56:54;2.00;;;0.90;;
10299;SDS011;5195;48.562;9.192;2023-03-31T16:59:20;1.60;;;0.73;;
10299;SDS011;5195;48.562;9.192;2023-03-31T17:01:45;2.30;;;1.00;;
10299;SDS011;5195;48.562;9.192;2023-03-31T17:04:11;1.70;;;1.30;;
10299;SDS011;5195;48.562;9.192;2023-03-31T17:06:36;2.20;;;1.13;;
10299;SDS011;5195;48.562;9.192;2023-03-31T17:09:02;2.40;;;0.60;;
10299;SDS011;5195;48.562;9.192;2023-03-31T17:11:27;1.20;;;0.90;;
10299;SDS011;5195;48.562;9.192;2023-03-31T17:13:53;1.37;;;0.60;;
10299;SDS011;5195;48.562;9.192;2023-03-31T17:16:19;1.48;;;0.98;;
10299;SDS011;5195;48.562;9.192;2023-03-31T17:18:44;1.10;;;0.70;;
10299;SDS011;5195;48.562;9.192;2023-03-31T17:21:10;1.57;;;0.60;;
10299;SDS011;5195;48.562;9.192;2023-03-31T17:23:36;1.47;;;1.17;;
10299;SDS011;5195;48.562;9.192;2023-03-31T17:26:02;2.55;;;1.00;;
10299;SDS011;5195;48.562;9.192;2023-03-31T17:28:27;0.90;;;0.77;;
10299;SDS011;5195;48.562;9.192;2023-03-31T17:30:53;2.12;;;1.15;;
10299;SDS011;5195;48.562;9.192;2023-03-31T17:33:18;1.83;;;1.73;;
10299;SDS011;5195;48.562;9.192;2023-03-31T17:35:44;2.80;;;1.07;;
10299;SDS011;5195;48.562;9.192;2023-03-31T17:38:09;3.67;;;1.87;;
10299;SDS011;5195;48.562;9.192;2023-03-31T17:40:35;1.77;;;1.33;;
10299;SDS011;5195;48.562;9.192;2023-03-31T17:43:00;2.73;;;1.53;;
10299;SDS011;5195;48.562;9.192;2023-03-31T17:45:26;2.93;;;1.37;;
10299;SDS011;5195;48.562;9.192;2023-03-31T17:47:51;2.30;;;1.20;;
10299;SDS011;5195;48.562;9.192;2023-03-31T17:50:20;2.15;;;1.60;;
10299;SDS011;5195;48.562;9.192;2023-03-31T17:52:53;1.40;;;1.20;;
10299;SDS011;5195;48.562;9.192;2023-03-31T17:55:18;2.90;;;1.60;;
10299;SDS011;5195;48.562;9.192;2023-03-31T17:57:44;3.40;;;1.70;;
10299;SDS011;5195;48.562;9.192;2023-03-31T18:00:10;2.80;;;1.20;;
10299;SDS011;5195;48.562;9.192;2023-03-31T18:02:36;2.23;;;1.30;;
10299;SDS011;5195;48.562;9.192;2023-03-31T18:05:02;2.27;;;1.30;;
10299;SDS011;5195;48.562;9.192;2023-03-31T18:07:28;3.42;;;1.73;;
10299;SDS011;5195;48.562;9.192;2023-03-31T18:09:55;2.30;;;1.33;;
10299;SDS011;5195;48.562;9.192;2023-03-31T18:12:21;2.10;;;1.37;;
10299;SDS011;5195;48.562;9.192;2023-03-31T18:14:49;2.10;;;1.10;;
10299;SDS011;5195;48.562;9.192;2023-03-31T18:17:14;3.07;;;1.40;;
10299;SDS011;5195;48.562;9.192;2023-03-31T18:19:41;2.10;;;1.47;;
10299;SDS011;5195;48.562;9.192;2023-03-31T18:22:06;2.87;;;1.60;;
10299;SDS011;5195;48.562;9.192;2023-03-31T18:24:32;2.30;;;1.60;;
10299;SDS011;5195;48.562;9.192;2023-03-31T18:26:57;2.15;;;1.30;;
10299;SDS011;5195;48.562;9.192;2023-03-31T18:29:24;2.43;;;1.27;;
10299;SDS011;5195;48.562;9.192;2023-03-31T18:31:50;1.55;;;1.23;;
10299;SDS011;5195;48.562;9.192;2023-03-31T18:34:15;2.47;;;1.23;;
10299;SDS011;5195;48.562;9.192;2023-03-31T18:36:41;1.10;;;0.80;;
10299;SDS011;5195;48.562;9.192;2023-03-31T18:39:07;2.50;;;0.80;;
10299;SDS011;5195;48.562;9.192;2023-03-31T18:41:32;1.75;;;0.93;;
10299;SDS011;5195;48.562;9.192;2023-03-31T18:43:59;2.72;;;1.05;;
10299;SDS011;5195;48.562;9.192;2023-03-31T18:46:25;1.20;;;1.10;;
10299;SDS011;5195;48.562;9.192;2023-03-31T18:48:50;3.67;;;1.50;;
10299;SDS011;5195;48.562;9.192;2023-03-31T18:51:16;2.90;;;1.13;;
10299;SDS011;5195;48.562;9.192;2023-03-31T18:53:41;2.42;;;1.40;;
10299;SDS011;5195;48.562;9.192;2023-03-31T18:56:07;3.17;;;1.00;;
10299;SDS011;5195;48.562;9.192;2023-03-31T18:58:33;1.77;;;0.90;;
10299;SDS011;5195;48.562;9.192;2023-03-31T19:00:58;3.00;;;1.40;;
10299;SDS011;5195;48.562;9.192;2023-03-31T19:03:24;4.80;;;1.23;;
10299;SDS011;5195;48.562;9.192;2023-03-31T19:05:50;2.63;;;1.30;;
10299;SDS011;5195;48.562;9.192;2023-03-31T19:08:15;1.43;;;0.90;;
10299;SDS011;5195;48.562;9.192;2023-03-31T19:10:42;2.62;;;1.30;;
10299;SDS011;5195;48.562;9.192;2023-03-31T19:13:09;2.27;;;1.20;;
10299;SDS011;5195;48.562;9.192;2023-03-31T19:15:33;2.67;;;1.40;;
10299;SDS011;5195;48.562;9.192;2023-03-31T19:17:59;1.73;;;1.03;;
10299;SDS011;5195;48.562;9.192;2023-03-31T19:20:24;2.57;;;1.37;;
10299;SDS011;5195;48.562;9.192;2023-03-31T19:22:50;2.20;;;1.30;;
10299;SDS011;5195;48.562;9.192;2023-03-31T19:25:16;2.67;;;1.20;;
10299;SDS011;5195;48.562;9.192;2023-03-31T19:27:42;2.30;;;1.40;;
10299;SDS011;5195;48.562;9.192;2023-03-31T19:30:17;3.00;;;1.20;;
10299;SDS011;5195;48.562;9.192;2023-03-31T19:32:42;2.03;;;1.17;;
10299;SDS011;5195;48.562;9.192;2023-03-31T19:35:08;4.20;;;1.20;;
10299;SDS011;5195;48.562;9.192;2023-03-31T19:37:33;4.50;;;1.20;;
10299;SDS011;5195;48.562;9.192;2023-03-31T19:39:59;2.23;;;1.20;;
10299;SDS011;5195;48.562;9.192;2023-03-31T19:42:25;1.20;;;1.10;;
10299;SDS011;5195;48.562;9.192;2023-03-31T19:44:50;1.73;;;1.20;;